CTSO2: Bird Creek At Catoosa

Data processed at Fri Jun 05 2020 22:55


All information presented herein is the property of the government of the United States of America and may be revised or deleted at any time without prior notice.
Dissemination of this information without the expressed written consent of the Public Affairs Office, Tulsa District U.S. Army Corps of Engineers is strictly prohibited.
These data are gathered electronically and, as presented, have not undergone any form of quality control. These data are not guaranteed to be valid or correct.
Go to home page.
Go to station list.
Go to home page.

Upstream stations:

Downstream station:
Previous Day
Next Day
Current Day
    
SHEF ID:       CTSO2     Bird Ck at State Highway 266 nea
STATION TYPE:  
Regulating: Stage =    26.00, Flow =    19355

                STAGE  STAGE(2)  RIV-FLOW  WTR-TEMP   DIS-OXY        PH   CONDUCT  BAT-LOAD
                   ft        ft       cfs         F      mg/l        su   umho/cm      volt
              Ccp-Rev   Ccp-Rev   Ccp-Rev   Ccp-Rev   Ccp-Rev   Ccp-Rev   Ccp-Rev   Ccp-Rev
(US/Central)
06/05 00:00      4.88      4.75       339     81.52      8.29      7.97       405     12.65
06/05 01:00      4.87      4.73       336     81.30      8.14      7.96       406     12.65
06/05 02:00      4.86      4.74       333     81.05      7.97      7.93       404     12.57
06/05 03:00      4.86      4.73       333     80.78      7.79      7.91       396     12.57
06/05 04:00      4.86      4.72       333     80.38      7.61      7.88       396     12.57
06/05 05:00      4.85      4.71       330     80.28      7.57      7.87       397     12.57
06/05 06:00      4.82      4.70       320     79.54      7.28      7.82       397     12.57
06/05 07:00      4.83      4.69       323     79.18      7.10      7.80       400     12.57
06/05 08:00      4.81      4.70       317     79.00      7.05      7.79       388     13.21
06/05 09:00      4.82      4.67       320     79.11      7.12      7.79       393     13.44
06/05 10:00      4.81      4.68       317     79.38      7.24      7.80       412     13.44
06/05 11:00      4.82      4.70       320     79.75      7.34      7.82       410     13.05
06/05 12:00      4.84      4.70       327     80.26      7.50      7.82       406     12.97
06/05 13:00      4.83      4.70       323     80.67      7.69      7.86       414     12.97
06/05 14:00      4.82      4.71       320     81.16      7.90      7.90       395     12.97
06/05 15:00      4.84      4.70       327     81.75      8.14      7.94       398     12.81
06/05 16:00      4.83      4.69       323     82.18      8.32      7.97       403     12.81
06/05 17:00      4.80      4.69       314     82.49      8.47      7.99       400     12.81
06/05 18:00      4.81      4.69       317     82.76      8.54      8.00       396     12.73
06/05 19:00      4.80      4.67       314     82.98      8.62      8.01       404     12.73
06/05 20:00      4.79      4.68       311     83.14      8.65      8.01       408     12.73
06/05 21:00      4.78      4.66       308     83.17      8.64      8.01       401     12.65
06/05 22:00      ----      ----      ----      ----      ----      ----      ----      ----
06/05 23:00      ----      ----      ----      ----      ----      ----      ----      ----